createdAt,value
2022-08-28T00:00:02.866Z,76.46
2022-08-28T00:01:03.160Z,76.67
2022-08-28T00:02:01.908Z,76.76
2022-08-28T00:03:02.519Z,76.76
2022-08-28T00:04:01.904Z,76.67
2022-08-28T00:05:01.935Z,76.56
2022-08-28T00:06:01.819Z,76.67
2022-08-28T00:07:02.478Z,76.56
2022-08-28T00:08:02.631Z,76.56
2022-08-28T00:09:02.846Z,76.56
2022-08-28T00:10:02.404Z,76.56
2022-08-28T00:11:02.394Z,76.67
2022-08-28T00:12:02.506Z,76.76
2022-08-28T00:13:02.100Z,76.67
2022-08-28T00:14:01.982Z,76.56
2022-08-28T00:15:01.921Z,76.67
2022-08-28T00:16:02.637Z,76.67
2022-08-28T00:17:02.299Z,76.67
2022-08-28T00:18:02.822Z,76.67
2022-08-28T00:19:02.508Z,76.56
2022-08-28T00:20:02.777Z,76.67
2022-08-28T00:21:02.526Z,76.67
2022-08-28T00:22:02.479Z,76.56
2022-08-28T00:23:02.724Z,76.46
2022-08-28T00:24:02.666Z,76.56
2022-08-28T00:25:02.578Z,76.56
2022-08-28T00:26:02.512Z,76.76
2022-08-28T00:27:02.484Z,76.97
2022-08-28T00:28:05.433Z,77.76
2022-08-28T00:29:02.212Z,77.50
2022-08-28T00:30:02.269Z,77.40
2022-08-28T00:31:02.326Z,77.91
2022-08-28T00:32:02.633Z,78.80
2022-08-28T00:33:02.275Z,78.30
2022-08-28T00:34:02.339Z,78.30
2022-08-28T00:35:02.288Z,77.80
2022-08-28T00:36:02.250Z,77.91
2022-08-28T00:37:02.657Z,78.70
2022-08-28T00:38:02.592Z,78.30
2022-08-28T00:39:02.619Z,78.20
2022-08-28T00:40:02.695Z,78.41
2022-08-28T00:41:03.768Z,78.41
2022-08-28T00:42:02.973Z,78.10
2022-08-28T00:43:02.907Z,77.91
2022-08-28T00:44:02.795Z,78.00
2022-08-28T00:45:03.401Z,78.41
2022-08-28T00:46:03.187Z,78.20
2022-08-28T00:47:02.186Z,78.20
2022-08-28T00:48:02.167Z,78.00
2022-08-28T00:49:02.301Z,78.00
2022-08-28T00:50:02.597Z,78.20
2022-08-28T00:51:02.283Z,78.30
2022-08-28T00:52:02.882Z,78.20
2022-08-28T00:53:03.120Z,78.70
2022-08-28T00:54:07.381Z,79.21
2022-08-28T00:55:02.995Z,78.20
2022-08-28T00:56:02.675Z,78.20
2022-08-28T00:57:02.354Z,78.20
2022-08-28T00:58:02.479Z,77.91
2022-08-28T00:59:02.481Z,77.70
2022-08-28T01:00:02.387Z,78.10
2022-08-28T01:01:02.369Z,78.20
2022-08-28T01:02:03.007Z,78.50
2022-08-28T01:03:02.986Z,78.00
2022-08-28T01:04:03.021Z,78.00
2022-08-28T01:05:02.930Z,78.00
2022-08-28T01:06:02.830Z,77.91
2022-08-28T01:07:03.400Z,77.80
2022-08-28T01:08:03.338Z,77.91
2022-08-28T01:09:03.637Z,78.00
2022-08-28T01:10:03.581Z,78.30
2022-08-28T01:11:03.454Z,78.91
2022-08-28T01:12:03.070Z,78.41
2022-08-28T01:13:03.134Z,78.10
2022-08-28T01:14:03.232Z,78.00
2022-08-28T01:15:03.190Z,77.91
2022-08-28T01:16:03.357Z,77.91
2022-08-28T01:17:02.424Z,78.41
2022-08-28T01:18:07.372Z,78.20
2022-08-28T01:19:02.516Z,79.10
2022-08-28T01:20:02.548Z,78.50
2022-08-28T01:21:02.466Z,78.41
2022-08-28T01:22:03.521Z,78.10
2022-08-28T01:23:03.373Z,78.00
2022-08-28T01:24:03.413Z,78.60
2022-08-28T01:25:03.150Z,78.60
2022-08-28T01:26:03.618Z,78.30
2022-08-28T01:27:03.595Z,78.50
2022-08-28T01:28:03.647Z,78.10
2022-08-28T01:29:03.565Z,78.10
2022-08-28T01:30:03.382Z,79.10
2022-08-28T01:31:04.054Z,78.10
2022-08-28T01:32:02.913Z,78.00
2022-08-28T01:33:02.442Z,77.91
2022-08-28T01:34:03.046Z,77.70
2022-08-28T01:35:02.605Z,77.80
2022-08-28T01:36:02.802Z,78.10
2022-08-28T01:37:03.671Z,78.41
2022-08-28T01:38:03.368Z,78.24
2022-08-28T01:39:03.283Z,78.00
2022-08-28T01:40:03.133Z,78.64
2022-08-28T01:41:03.035Z,78.30
2022-08-28T01:42:03.651Z,78.41
2022-08-28T01:43:03.512Z,78.10
2022-08-28T01:44:03.450Z,78.24
2022-08-28T01:45:03.674Z,78.64
2022-08-28T01:46:03.875Z,78.41
2022-08-28T01:47:03.272Z,78.34
2022-08-28T01:48:03.131Z,78.74
2022-08-28T01:49:03.027Z,78.24
2022-08-28T01:50:02.925Z,78.24
2022-08-28T01:51:03.351Z,78.24
2022-08-28T01:52:03.757Z,78.24
2022-08-28T01:53:03.575Z,78.14
2022-08-28T01:54:03.337Z,78.34
2022-08-28T01:55:05.055Z,78.24
2022-08-28T01:56:04.553Z,78.74
2022-08-28T01:57:03.349Z,79.04
2022-08-28T01:58:02.995Z,78.54
2022-08-28T01:59:02.839Z,78.54
2022-08-28T02:00:03.214Z,78.44
2022-08-28T02:01:03.433Z,79.14
2022-08-28T02:02:02.267Z,79.34
2022-08-28T02:03:02.478Z,79.85
2022-08-28T02:04:02.571Z,79.04
2022-08-28T02:05:02.592Z,78.84
2022-08-28T02:06:02.809Z,78.84
2022-08-28T02:07:03.428Z,78.64
2022-08-28T02:08:03.109Z,78.54
2022-08-28T02:09:03.035Z,78.84
2022-08-28T02:10:03.053Z,78.84
2022-08-28T02:11:02.965Z,78.64
2022-08-28T02:12:03.540Z,78.64
2022-08-28T02:13:03.163Z,78.64
2022-08-28T02:14:03.059Z,78.94
2022-08-28T02:15:03.415Z,78.74
2022-08-28T02:16:03.422Z,78.44
2022-08-28T02:17:02.419Z,78.74
2022-08-28T02:18:02.800Z,78.64
2022-08-28T02:19:02.738Z,78.64
2022-08-28T02:20:02.904Z,78.64
2022-08-28T02:21:02.840Z,79.54
2022-08-28T02:22:03.622Z,78.84
2022-08-28T02:23:03.172Z,78.74
2022-08-28T02:24:03.074Z,79.14
2022-08-28T02:25:03.093Z,78.74
2022-08-28T02:26:02.993Z,78.74
2022-08-28T02:27:02.643Z,78.74
2022-08-28T02:28:03.076Z,78.44
2022-08-28T02:29:02.976Z,78.64
2022-08-28T02:30:03.370Z,79.14
2022-08-28T02:31:02.982Z,78.94
2022-08-28T02:32:02.560Z,78.84
2022-08-28T02:33:02.502Z,78.54
2022-08-28T02:34:02.791Z,78.54
2022-08-28T02:35:02.764Z,78.54
2022-08-28T02:36:02.844Z,78.34
2022-08-28T02:37:02.513Z,78.74
2022-08-28T02:38:02.668Z,78.54
2022-08-28T02:39:02.630Z,78.44
2022-08-28T02:40:02.563Z,78.54
2022-08-28T02:41:04.170Z,78.44
2022-08-28T02:42:03.613Z,78.38
2022-08-28T02:43:03.514Z,78.34
2022-08-28T02:44:03.478Z,78.34
2022-08-28T02:45:03.416Z,78.34
2022-08-28T02:46:03.403Z,78.54
2022-08-28T02:47:02.784Z,78.44
2022-08-28T02:48:02.695Z,78.54
2022-08-28T02:49:02.583Z,78.48
2022-08-28T02:50:02.491Z,78.78
2022-08-28T02:51:02.361Z,78.68
2022-08-28T02:52:03.287Z,78.68
2022-08-28T02:53:03.542Z,78.88
2022-08-28T02:54:03.198Z,78.68
2022-08-28T02:55:03.271Z,78.58
2022-08-28T02:56:03.210Z,78.78
2022-08-28T02:57:02.864Z,78.88
2022-08-28T02:58:03.304Z,78.68
2022-08-28T02:59:03.039Z,78.78
2022-08-28T03:00:03.166Z,78.58
2022-08-28T03:01:03.342Z,78.88
2022-08-28T03:02:03.080Z,79.08
2022-08-28T03:03:03.003Z,78.84
2022-08-28T03:04:02.926Z,79.08
2022-08-28T03:05:02.920Z,79.08
2022-08-28T03:06:03.255Z,79.78
2022-08-28T03:07:02.248Z,79.24
2022-08-28T03:08:02.419Z,79.38
2022-08-28T03:09:02.324Z,79.28
2022-08-28T03:10:02.213Z,79.18
2022-08-28T03:11:02.093Z,79.08
2022-08-28T03:12:02.656Z,78.98
2022-08-28T03:13:03.024Z,79.08
2022-08-28T03:14:02.659Z,79.18
2022-08-28T03:15:02.525Z,79.08
2022-08-28T03:16:03.079Z,79.18
2022-08-28T03:17:02.726Z,79.38
2022-08-28T03:18:02.912Z,79.28
2022-08-28T03:19:03.005Z,79.28
2022-08-28T03:20:02.893Z,79.18
2022-08-28T03:21:02.792Z,79.08
2022-08-28T03:22:02.421Z,78.98
2022-08-28T03:23:02.301Z,79.18
2022-08-28T03:24:02.530Z,79.08
2022-08-28T03:25:02.282Z,79.18
2022-08-28T03:26:02.170Z,79.48
2022-08-28T03:27:03.100Z,79.38
2022-08-28T03:28:02.977Z,79.08
2022-08-28T03:29:02.852Z,79.18
2022-08-28T03:30:03.421Z,79.18
2022-08-28T03:31:03.078Z,79.48
2022-08-28T03:32:02.732Z,79.58
2022-08-28T03:33:02.786Z,79.58
2022-08-28T03:34:02.766Z,79.38
2022-08-28T03:35:02.733Z,79.48
2022-08-28T03:36:04.729Z,79.58
2022-08-28T03:37:03.483Z,79.48
2022-08-28T03:38:03.330Z,79.38
2022-08-28T03:39:03.010Z,79.38
2022-08-28T03:40:02.986Z,79.38
2022-08-28T03:41:02.891Z,79.48
2022-08-28T03:42:03.445Z,79.28
2022-08-28T03:43:03.617Z,79.38
2022-08-28T03:44:03.530Z,79.28
2022-08-28T03:45:03.416Z,79.08
2022-08-28T03:46:03.365Z,79.18
2022-08-28T03:47:03.100Z,79.08
2022-08-28T03:48:02.976Z,79.28
2022-08-28T03:49:02.864Z,79.28
2022-08-28T03:50:03.246Z,79.28
2022-08-28T03:51:03.024Z,79.28
2022-08-28T03:52:03.195Z,79.28
2022-08-28T03:53:03.803Z,79.18
2022-08-28T03:54:03.493Z,79.18
2022-08-28T03:55:03.375Z,79.28
2022-08-28T03:56:03.289Z,79.48
2022-08-28T03:57:02.935Z,79.58
2022-08-28T03:58:02.845Z,79.38
2022-08-28T03:59:02.797Z,79.28
2022-08-28T04:00:02.672Z,79.18
2022-08-28T04:01:02.921Z,79.28
2022-08-28T04:02:03.574Z,79.42
2022-08-28T04:03:03.498Z,79.52
2022-08-28T04:04:03.731Z,79.52
2022-08-28T04:05:03.400Z,79.42
2022-08-28T04:06:03.162Z,79.32
2022-08-28T04:07:03.165Z,79.22
2022-08-28T04:08:02.945Z,79.32
2022-08-28T04:09:02.934Z,79.32
2022-08-28T04:10:02.907Z,79.32
2022-08-28T04:11:03.016Z,79.12
2022-08-28T04:12:03.750Z,79.12
2022-08-28T04:13:03.425Z,79.02
2022-08-28T04:14:03.303Z,79.22
2022-08-28T04:15:03.218Z,79.12
2022-08-28T04:16:05.024Z,79.02
2022-08-28T04:17:03.358Z,79.12
2022-08-28T04:18:02.872Z,79.12
2022-08-28T04:19:02.844Z,79.22
2022-08-28T04:20:02.744Z,79.22
2022-08-28T04:21:03.329Z,79.12
2022-08-28T04:22:03.324Z,79.12
2022-08-28T04:23:03.318Z,79.02
2022-08-28T04:24:07.830Z,79.22
2022-08-28T04:25:03.339Z,79.02
2022-08-28T04:26:03.122Z,79.12
2022-08-28T04:27:03.406Z,79.52
2022-08-28T04:28:03.309Z,79.52
2022-08-28T04:29:03.346Z,79.72
2022-08-28T04:30:03.477Z,79.62
2022-08-28T04:31:03.474Z,79.62
2022-08-28T04:32:04.162Z,79.52
2022-08-28T04:33:03.811Z,79.62
2022-08-28T04:34:03.897Z,79.62
2022-08-28T04:35:03.787Z,79.62
2022-08-28T04:36:03.798Z,79.72
2022-08-28T04:37:03.103Z,79.52
2022-08-28T04:38:05.568Z,79.62
2022-08-28T04:39:03.376Z,79.62
2022-08-28T04:40:03.082Z,79.62
2022-08-28T04:41:03.369Z,79.52
2022-08-28T04:42:03.390Z,79.55
2022-08-28T04:43:03.387Z,79.52
2022-08-28T04:44:03.408Z,79.66
2022-08-28T04:45:03.423Z,79.55
2022-08-28T04:46:03.931Z,79.86
2022-08-28T04:47:02.820Z,79.66
2022-08-28T04:48:03.279Z,79.66
2022-08-28T04:49:03.322Z,79.66
2022-08-28T04:50:03.366Z,79.86
2022-08-28T04:51:02.926Z,80.16
2022-08-28T04:52:03.183Z,80.06
2022-08-28T04:53:03.252Z,79.96
2022-08-28T04:54:03.295Z,79.86
2022-08-28T04:55:03.262Z,79.86
2022-08-28T04:56:03.301Z,79.86
2022-08-28T04:57:06.415Z,79.96
2022-08-28T04:58:03.719Z,79.86
2022-08-28T04:59:03.990Z,80.06
2022-08-28T05:00:04.089Z,79.96
2022-08-28T05:01:04.278Z,79.25
2022-08-28T05:02:03.408Z,79.16
2022-08-28T05:03:03.178Z,79.05
2022-08-28T05:04:03.203Z,78.05
2022-08-28T05:05:02.970Z,78.35
2022-08-28T05:06:03.271Z,78.25
2022-08-28T05:07:03.341Z,77.95
2022-08-28T05:08:03.830Z,77.95
2022-08-28T05:09:03.801Z,77.75
2022-08-28T05:10:03.781Z,77.55
2022-08-28T05:11:03.815Z,77.45
2022-08-28T05:12:02.612Z,77.05
2022-08-28T05:13:02.770Z,77.15
2022-08-28T05:14:02.996Z,77.25
2022-08-28T05:15:03.024Z,77.25
2022-08-28T05:16:02.979Z,76.85
2022-08-28T05:17:03.062Z,76.65
2022-08-28T05:18:03.142Z,76.68
2022-08-28T05:19:03.225Z,76.89
2022-08-28T05:20:03.151Z,76.89
2022-08-28T05:21:03.411Z,76.89
2022-08-28T05:22:03.586Z,77.19
2022-08-28T05:23:03.472Z,76.89
2022-08-28T05:24:03.564Z,76.48
2022-08-28T05:25:03.522Z,76.98
2022-08-28T05:26:03.758Z,77.09
2022-08-28T05:27:02.895Z,76.58
2022-08-28T05:28:02.913Z,76.78
2022-08-28T05:29:02.978Z,76.78
2022-08-28T05:30:02.988Z,76.89
2022-08-28T05:31:02.753Z,76.58
2022-08-28T05:32:03.887Z,76.89
2022-08-28T05:33:03.633Z,76.78
2022-08-28T05:34:03.595Z,76.58
2022-08-28T05:35:03.468Z,76.68
2022-08-28T05:36:03.695Z,76.78
2022-08-28T05:37:02.908Z,76.89
2022-08-28T05:38:02.817Z,76.85
2022-08-28T05:39:02.846Z,76.65
2022-08-28T05:40:03.032Z,76.68
2022-08-28T05:41:03.154Z,76.75
2022-08-28T05:42:02.953Z,76.68
2022-08-28T05:43:02.985Z,76.54
2022-08-28T05:44:03.545Z,76.54
2022-08-28T05:45:03.040Z,76.54
2022-08-28T05:46:03.225Z,76.45
2022-08-28T05:47:02.636Z,76.45
2022-08-28T05:48:02.759Z,76.65
2022-08-28T05:49:06.592Z,76.75
2022-08-28T05:50:02.951Z,75.45
2022-08-28T05:51:03.122Z,75.24
2022-08-28T05:52:03.489Z,75.24
2022-08-28T05:53:02.864Z,74.74
2022-08-28T05:54:02.924Z,75.14
2022-08-28T05:55:03.090Z,75.24
2022-08-28T05:56:03.542Z,75.24
2022-08-28T05:57:03.416Z,75.45
2022-08-28T05:58:03.067Z,75.64
2022-08-28T05:59:03.405Z,75.54
2022-08-28T06:00:03.549Z,75.64
2022-08-28T06:01:03.216Z,75.34
2022-08-28T06:02:04.534Z,75.45
2022-08-28T06:03:02.763Z,75.95
2022-08-28T06:04:02.729Z,75.54
2022-08-28T06:05:02.828Z,74.84
2022-08-28T06:06:03.047Z,75.14
2022-08-28T06:07:03.246Z,75.24
2022-08-28T06:08:03.274Z,74.44
2022-08-28T06:09:03.168Z,74.14
2022-08-28T06:10:03.231Z,74.54
2022-08-28T06:11:03.407Z,75.04
2022-08-28T06:12:03.393Z,74.54
2022-08-28T06:13:03.135Z,74.51
2022-08-28T06:14:02.958Z,73.24
2022-08-28T06:15:03.224Z,73.64
2022-08-28T06:16:03.619Z,74.24
2022-08-28T06:17:03.565Z,74.04
2022-08-28T06:18:03.146Z,74.04
2022-08-28T06:19:03.802Z,73.94
2022-08-28T06:20:03.339Z,74.04
2022-08-28T06:21:03.159Z,74.04
2022-08-28T06:22:07.028Z,74.14
2022-08-28T06:23:03.129Z,74.14
2022-08-28T06:24:02.895Z,73.54
2022-08-28T06:25:05.456Z,73.94
2022-08-28T06:26:02.503Z,74.74
2022-08-28T06:27:03.351Z,74.94
2022-08-28T06:28:03.204Z,74.34
2022-08-28T06:29:03.092Z,74.44
2022-08-28T06:30:03.302Z,73.84
2022-08-28T06:31:23.191Z,73.64
2022-08-28T06:32:03.668Z,74.64
2022-08-28T06:33:03.621Z,74.34
2022-08-28T06:34:03.422Z,74.30
2022-08-28T06:35:03.176Z,75.41
2022-08-28T06:36:03.738Z,75.10
2022-08-28T06:37:03.421Z,73.90
2022-08-28T06:38:03.943Z,73.20
2022-08-28T06:39:03.960Z,73.30
2022-08-28T06:40:03.442Z,73.03
2022-08-28T06:41:03.579Z,73.84
2022-08-28T06:42:03.369Z,74.34
2022-08-28T06:43:03.496Z,74.71
2022-08-28T06:44:03.387Z,74.80
2022-08-28T06:45:03.211Z,73.80
2022-08-28T06:46:03.314Z,73.70
2022-08-28T06:47:03.666Z,74.51
2022-08-28T06:48:03.382Z,74.30
2022-08-28T06:49:03.616Z,73.70
2022-08-28T06:50:03.716Z,73.50
2022-08-28T06:51:03.259Z,73.60
2022-08-28T06:52:03.064Z,73.50
2022-08-28T06:53:03.182Z,73.60
2022-08-28T06:54:03.024Z,72.60
2022-08-28T06:55:03.121Z,72.50
2022-08-28T06:56:02.820Z,73.00
2022-08-28T06:57:03.664Z,73.60
2022-08-28T06:58:03.328Z,73.90
2022-08-28T06:59:03.473Z,74.01
2022-08-28T07:00:03.552Z,73.50
2022-08-28T07:01:03.777Z,74.67
2022-08-28T07:02:04.008Z,74.17
2022-08-28T07:03:03.395Z,73.27
2022-08-28T07:04:03.568Z,73.16
2022-08-28T07:05:03.822Z,72.27
2022-08-28T07:06:03.403Z,73.16
2022-08-28T07:07:03.194Z,73.36
2022-08-28T07:08:02.656Z,72.47
2022-08-28T07:09:02.834Z,73.16
2022-08-28T07:10:03.245Z,71.86
2022-08-28T07:11:02.857Z,73.07
2022-08-28T07:12:03.450Z,73.47
2022-08-28T07:13:03.206Z,73.07
2022-08-28T07:14:02.995Z,73.07
2022-08-28T07:15:03.366Z,73.53
2022-08-28T07:16:03.184Z,73.53
2022-08-28T07:17:02.426Z,72.63
2022-08-28T07:18:02.549Z,72.43
2022-08-28T07:19:03.053Z,73.10
2022-08-28T07:20:02.920Z,73.50
2022-08-28T07:21:02.715Z,72.09
2022-08-28T07:22:02.504Z,72.30
2022-08-28T07:23:02.939Z,71.69
2022-08-28T07:24:03.177Z,71.69
2022-08-28T07:25:02.622Z,71.66
2022-08-28T07:26:02.687Z,70.56
2022-08-28T07:27:02.624Z,71.76
2022-08-28T07:28:03.235Z,71.96
2022-08-28T07:29:09.917Z,71.42
2022-08-28T07:30:02.745Z,70.92
2022-08-28T07:31:02.958Z,70.53
2022-08-28T07:32:03.145Z,71.39
2022-08-28T07:33:03.257Z,70.49
2022-08-28T07:34:03.693Z,69.29
2022-08-28T07:35:03.765Z,70.26
2022-08-28T07:36:03.787Z,69.96
2022-08-28T07:37:02.870Z,69.36
2022-08-28T07:38:02.980Z,69.93
2022-08-28T07:39:03.049Z,69.43
2022-08-28T07:40:02.955Z,70.12
2022-08-28T07:41:03.308Z,70.23
2022-08-28T07:42:03.729Z,70.49
2022-08-28T07:43:03.567Z,70.39
2022-08-28T07:44:03.174Z,70.79
2022-08-28T07:45:03.446Z,67.16
2022-08-28T07:46:03.347Z,68.36
2022-08-28T07:47:02.751Z,68.96
2022-08-28T07:48:03.238Z,68.86
2022-08-28T07:49:03.004Z,68.53
2022-08-28T07:50:03.211Z,67.73
2022-08-28T07:51:02.956Z,65.23
2022-08-28T07:52:02.959Z,66.24
2022-08-28T07:53:02.902Z,64.44
2022-08-28T07:54:03.414Z,66.93
2022-08-28T07:55:03.154Z,67.43
2022-08-28T07:56:03.005Z,66.63
2022-08-28T07:57:03.271Z,67.33
2022-08-28T07:58:03.638Z,66.13
2022-08-28T07:59:03.694Z,65.31
2022-08-28T08:00:03.272Z,65.41
2022-08-28T08:01:03.563Z,65.41
2022-08-28T08:02:02.752Z,65.80
2022-08-28T08:03:02.638Z,65.01
2022-08-28T08:04:03.234Z,65.11
2022-08-28T08:05:03.071Z,65.20
2022-08-28T08:06:02.888Z,65.31
2022-08-28T08:07:02.926Z,65.57
2022-08-28T08:08:03.414Z,65.17
2022-08-28T08:09:03.439Z,64.87
2022-08-28T08:10:02.901Z,64.78
2022-08-28T08:11:02.962Z,63.75
2022-08-28T08:12:02.334Z,62.68
2022-08-28T08:13:02.412Z,63.68
2022-08-28T08:14:02.159Z,64.78
2022-08-28T08:15:02.176Z,64.67
2022-08-28T08:16:02.563Z,65.44
2022-08-28T08:17:02.779Z,65.84
2022-08-28T08:18:02.701Z,64.54
2022-08-28T08:19:02.988Z,63.35
2022-08-28T08:20:03.240Z,63.05
2022-08-28T08:21:02.608Z,61.25
2022-08-28T08:22:02.996Z,62.55
2022-08-28T08:23:03.051Z,63.45
2022-08-28T08:24:03.374Z,62.95
2022-08-28T08:25:02.908Z,64.45
2022-08-28T08:26:03.224Z,62.75
2022-08-28T08:27:03.134Z,63.45
2022-08-28T08:28:03.224Z,63.35
2022-08-28T08:29:02.940Z,63.35
2022-08-28T08:30:03.128Z,61.66
2022-08-28T08:31:03.659Z,63.85
2022-08-28T08:32:03.310Z,61.46
2022-08-28T08:33:03.421Z,62.55
2022-08-28T08:34:03.455Z,62.85
2022-08-28T08:35:03.215Z,63.45
2022-08-28T08:36:03.235Z,63.55
2022-08-28T08:37:02.475Z,64.34
2022-08-28T08:38:03.052Z,63.45
2022-08-28T08:39:02.336Z,62.85
2022-08-28T08:40:02.705Z,62.42
2022-08-28T08:41:02.267Z,61.43
2022-08-28T08:42:03.271Z,62.72
2022-08-28T08:43:03.208Z,62.40
2022-08-28T08:44:02.922Z,61.33
2022-08-28T08:45:03.140Z,62.42
2022-08-28T08:46:03.437Z,62.13
2022-08-28T08:47:03.131Z,63.02
2022-08-28T08:48:03.334Z,63.12
2022-08-28T08:49:03.384Z,62.29
2022-08-28T08:50:03.299Z,60.50
2022-08-28T08:51:03.500Z,61.90
2022-08-28T08:52:03.500Z,61.69
2022-08-28T08:53:03.848Z,60.21
2022-08-28T08:54:03.806Z,61.69
2022-08-28T08:55:03.430Z,61.20
2022-08-28T08:56:03.254Z,61.60
2022-08-28T08:57:03.142Z,61.30
2022-08-28T08:58:03.382Z,61.40
2022-08-28T08:59:03.010Z,60.68
2022-08-28T09:00:03.396Z,62.07
2022-08-28T09:01:03.148Z,62.07
2022-08-28T09:02:03.293Z,62.07
2022-08-28T09:03:03.312Z,62.04
2022-08-28T09:04:03.581Z,61.04
2022-08-28T09:05:03.379Z,59.05
2022-08-28T09:06:03.342Z,59.75
2022-08-28T09:07:03.438Z,59.45
2022-08-28T09:08:03.292Z,59.85
2022-08-28T09:09:03.283Z,59.92
2022-08-28T09:10:03.345Z,60.12
2022-08-28T09:11:03.475Z,60.31
2022-08-28T09:12:03.075Z,60.28
2022-08-28T09:13:02.480Z,60.19
2022-08-28T09:14:02.880Z,59.00
2022-08-28T09:15:03.036Z,59.30
2022-08-28T09:16:03.165Z,58.47
2022-08-28T09:17:03.155Z,57.98
2022-08-28T09:18:03.126Z,57.87
2022-08-28T09:19:03.396Z,58.17
2022-08-28T09:20:02.884Z,58.57
2022-08-28T09:21:02.923Z,58.67
2022-08-28T09:22:03.216Z,58.97
2022-08-28T09:23:12.701Z,58.64
2022-08-28T09:24:03.699Z,58.25
2022-08-28T09:25:02.983Z,58.54
2022-08-28T09:26:02.885Z,56.95
2022-08-28T09:27:02.793Z,57.85
2022-08-28T09:28:02.618Z,55.36
2022-08-28T09:29:02.972Z,56.49
2022-08-28T09:30:07.990Z,56.71
2022-08-28T09:31:03.140Z,55.62
2022-08-28T09:32:03.394Z,57.81
2022-08-28T09:33:03.787Z,58.10
2022-08-28T09:34:03.434Z,56.91
2022-08-28T09:35:03.307Z,56.59
2022-08-28T09:36:03.082Z,54.70
2022-08-28T09:37:03.605Z,56.88
2022-08-28T09:38:03.439Z,55.40
2022-08-28T09:39:03.284Z,55.19
2022-08-28T09:40:03.807Z,55.52
2022-08-28T09:41:03.802Z,56.38
2022-08-28T09:42:03.049Z,56.78
2022-08-28T09:43:02.699Z,54.10
2022-08-28T09:44:02.493Z,56.49
2022-08-28T09:45:02.624Z,55.79
2022-08-28T09:46:02.527Z,56.98
2022-08-28T09:47:03.152Z,56.85
2022-08-28T09:48:03.349Z,55.36
2022-08-28T09:49:03.269Z,57.15
2022-08-28T09:50:02.762Z,56.46
2022-08-28T09:51:03.007Z,56.36
2022-08-28T09:52:03.421Z,55.76
2022-08-28T09:53:03.462Z,54.87
2022-08-28T09:54:03.820Z,57.25
2022-08-28T09:55:03.601Z,54.28
2022-08-28T09:56:03.463Z,56.06
2022-08-28T09:57:03.244Z,57.55
2022-08-28T09:58:03.045Z,55.36
2022-08-28T09:59:03.208Z,55.07
2022-08-28T10:00:02.956Z,55.66
2022-08-28T10:01:02.816Z,53.88
2022-08-28T10:02:02.978Z,54.87
2022-08-28T10:03:07.394Z,53.88
2022-08-28T10:04:02.850Z,54.17
2022-08-28T10:05:03.009Z,54.38
2022-08-28T10:06:02.989Z,53.38
2022-08-28T10:07:03.102Z,55.00
2022-08-28T10:08:02.911Z,55.36
2022-08-28T10:09:02.676Z,54.77
2022-08-28T10:10:02.771Z,54.08
2022-08-28T10:11:02.996Z,54.50
2022-08-28T10:12:02.807Z,54.50
2022-08-28T10:13:02.786Z,53.51
2022-08-28T10:14:02.765Z,54.00
2022-08-28T10:15:02.610Z,54.47
2022-08-28T10:16:02.543Z,55.87
2022-08-28T10:17:03.203Z,54.17
2022-08-28T10:18:03.017Z,55.17
2022-08-28T10:19:02.819Z,53.98
2022-08-28T10:20:02.723Z,54.35
2022-08-28T10:21:02.739Z,54.87
2022-08-28T10:22:01.945Z,54.57
2022-08-28T10:23:02.185Z,55.47
2022-08-28T10:24:02.194Z,55.17
2022-08-28T10:25:02.307Z,54.87
2022-08-28T10:26:02.135Z,53.98
2022-08-28T10:27:02.346Z,52.79
2022-08-28T10:28:02.563Z,53.68
2022-08-28T10:29:02.576Z,55.66
2022-08-28T10:30:06.064Z,57.65
2022-08-28T10:31:02.864Z,55.07
2022-08-28T10:32:02.997Z,54.15
2022-08-28T10:33:02.617Z,55.04
2022-08-28T10:34:02.133Z,53.45
2022-08-28T10:35:02.117Z,53.06
2022-08-28T10:36:02.638Z,54.55
2022-08-28T10:37:02.606Z,55.44
2022-08-28T10:38:03.369Z,54.52
2022-08-28T10:39:03.346Z,52.86
2022-08-28T10:40:04.508Z,53.75
2022-08-28T10:41:02.983Z,54.35
2022-08-28T10:42:02.893Z,55.83
2022-08-28T10:43:02.348Z,53.96
2022-08-28T10:44:02.167Z,52.34
2022-08-28T10:45:02.506Z,52.17
2022-08-28T10:46:02.233Z,54.75
2022-08-28T10:47:02.501Z,52.96
2022-08-28T10:48:02.491Z,52.56
2022-08-28T10:49:02.722Z,53.56
2022-08-28T10:50:02.479Z,53.43
2022-08-28T10:51:02.530Z,52.04
2022-08-28T10:52:02.796Z,52.64
2022-08-28T10:53:02.805Z,50.38
2022-08-28T10:54:02.375Z,52.24
2022-08-28T10:55:02.304Z,51.84
2022-08-28T10:56:02.827Z,51.75
2022-08-28T10:57:02.707Z,52.14
2022-08-28T10:58:02.764Z,52.24
2022-08-28T10:59:02.568Z,51.54
2022-08-28T11:00:02.609Z,51.15
2022-08-28T11:01:02.753Z,51.05
2022-08-28T11:02:02.732Z,51.54
2022-08-28T11:03:03.109Z,52.14
2022-08-28T11:04:03.505Z,53.53
2022-08-28T11:05:03.128Z,51.05
2022-08-28T11:06:03.139Z,52.64
2022-08-28T11:07:03.301Z,53.73
2022-08-28T11:08:02.907Z,49.37
2022-08-28T11:09:02.731Z,51.75
2022-08-28T11:10:03.045Z,51.42
2022-08-28T11:11:03.246Z,51.23
2022-08-28T11:12:02.818Z,50.23
2022-08-28T11:13:03.663Z,50.63
2022-08-28T11:14:03.147Z,51.42
2022-08-28T11:15:03.494Z,50.34
2022-08-28T11:16:03.635Z,51.12
2022-08-28T11:17:03.820Z,50.04
2022-08-28T11:18:03.306Z,51.12
2022-08-28T11:19:03.356Z,51.42
2022-08-28T11:20:03.122Z,51.32
2022-08-28T11:21:03.488Z,51.62
2022-08-28T11:22:03.138Z,50.81
2022-08-28T11:23:03.775Z,50.51
2022-08-28T11:24:03.790Z,50.81
2022-08-28T11:25:08.936Z,50.81
2022-08-28T11:26:03.961Z,52.29
2022-08-28T11:27:04.058Z,50.11
2022-08-28T11:28:03.060Z,49.91
2022-08-28T11:29:03.019Z,50.51
2022-08-28T11:30:03.160Z,50.71
2022-08-28T11:31:02.942Z,51.40
2022-08-28T11:32:03.066Z,51.97
2022-08-28T11:33:03.247Z,51.18
2022-08-28T11:34:03.846Z,52.04
2022-08-28T11:35:03.642Z,50.26
2022-08-28T11:36:03.677Z,51.25
2022-08-28T11:37:03.789Z,48.97
2022-08-28T11:38:03.576Z,48.68
2022-08-28T11:39:03.374Z,49.27
2022-08-28T11:40:03.751Z,48.40
2022-08-28T11:41:03.667Z,49.49
2022-08-28T11:42:03.331Z,50.29
2022-08-28T11:43:03.824Z,48.70
2022-08-28T11:44:03.565Z,50.88
2022-08-28T11:45:03.835Z,48.21
2022-08-28T11:46:03.651Z,50.09
2022-08-28T11:47:04.026Z,51.07
2022-08-28T11:48:03.264Z,52.24
2022-08-28T11:49:03.375Z,49.96
2022-08-28T11:50:03.535Z,50.13
2022-08-28T11:51:03.647Z,50.43
2022-08-28T11:52:03.622Z,50.34
2022-08-28T11:53:02.888Z,50.61
2022-08-28T11:54:03.080Z,47.84
2022-08-28T11:55:03.041Z,48.24
2022-08-28T11:56:03.072Z,47.56
2022-08-28T11:57:02.883Z,49.05
2022-08-28T11:59:03.190Z,46.67
2022-08-28T12:00:02.958Z,47.96
2022-08-28T12:01:03.192Z,49.05
2022-08-28T12:02:03.341Z,49.32
2022-08-28T12:03:02.822Z,49.52
2022-08-28T12:04:07.451Z,49.99
2022-08-28T12:05:02.680Z,48.61
2022-08-28T12:06:02.657Z,49.20
2022-08-28T12:07:02.777Z,46.11
2022-08-28T12:08:01.920Z,47.50
2022-08-28T12:09:01.938Z,46.61
2022-08-28T12:10:05.168Z,47.89
2022-08-28T12:11:01.904Z,46.23
2022-08-28T12:12:02.003Z,46.23
2022-08-28T12:13:02.239Z,46.75
2022-08-28T12:14:02.322Z,46.55
2022-08-28T12:15:02.071Z,47.64
2022-08-28T12:16:02.289Z,46.45
2022-08-28T12:17:02.430Z,49.20
2022-08-28T12:18:02.409Z,48.21
2022-08-28T12:19:03.079Z,48.41
2022-08-28T12:20:02.843Z,48.28
2022-08-28T12:21:02.829Z,45.82
2022-08-28T12:22:02.427Z,46.33
2022-08-28T12:23:02.444Z,46.53
2022-08-28T12:24:09.206Z,47.60
2022-08-28T12:25:02.145Z,46.51
2022-08-28T12:26:02.298Z,46.41
2022-08-28T12:27:02.426Z,46.69
2022-08-28T12:28:02.962Z,46.39
2022-08-28T12:29:03.275Z,46.48
2022-08-28T12:30:02.781Z,45.40
2022-08-28T12:31:02.572Z,47.67
2022-08-28T12:32:02.706Z,46.59
2022-08-28T12:33:03.097Z,44.71
2022-08-28T12:34:02.920Z,45.79
2022-08-28T12:35:02.798Z,44.22
2022-08-28T12:36:02.870Z,45.23
2022-08-28T12:37:02.814Z,44.34
2022-08-28T12:38:02.962Z,46.70
2022-08-28T12:39:02.847Z,46.61
2022-08-28T12:40:02.887Z,46.83
2022-08-28T12:41:02.673Z,48.58
2022-08-28T12:42:02.765Z,47.20
2022-08-28T12:43:03.169Z,48.36
2022-08-28T12:44:03.201Z,47.47
2022-08-28T12:45:03.615Z,49.35
2022-08-28T12:46:03.527Z,46.96
2022-08-28T12:47:03.336Z,46.76
2022-08-28T12:48:02.607Z,46.56
2022-08-28T12:49:02.436Z,44.69
2022-08-28T12:50:02.890Z,45.08
2022-08-28T12:51:03.224Z,44.79
2022-08-28T12:52:02.930Z,46.04
2022-08-28T12:53:02.586Z,44.96